sensor_id;sensor_type;location;lat;lon;timestamp;temperature;humidity
44117;DHT22;29781;49.480;8.512;2022-08-21T00:00:42;22.40;93.70
44117;DHT22;29781;49.480;8.512;2022-08-21T00:03:09;22.10;94.30
44117;DHT22;29781;49.480;8.512;2022-08-21T00:05:38;21.50;96.90
44117;DHT22;29781;49.480;8.512;2022-08-21T00:08:05;21.40;97.80
44117;DHT22;29781;49.480;8.512;2022-08-21T00:10:31;21.30;98.70
44117;DHT22;29781;49.480;8.512;2022-08-21T00:12:56;21.20;98.80
44117;DHT22;29781;49.480;8.512;2022-08-21T00:15:26;21.00;98.80
44117;DHT22;29781;49.480;8.512;2022-08-21T00:17:53;20.70;99.30
44117;DHT22;29781;49.480;8.512;2022-08-21T00:20:21;20.60;99.60
44117;DHT22;29781;49.480;8.512;2022-08-21T00:22:47;20.60;99.30
44117;DHT22;29781;49.480;8.512;2022-08-21T00:25:14;20.50;99.20
44117;DHT22;29781;49.480;8.512;2022-08-21T00:27:41;20.50;98.90
44117;DHT22;29781;49.480;8.512;2022-08-21T00:30:14;20.60;99.00
44117;DHT22;29781;49.480;8.512;2022-08-21T00:32:40;20.80;98.90
44117;DHT22;29781;49.480;8.512;2022-08-21T00:35:09;21.20;97.70
44117;DHT22;29781;49.480;8.512;2022-08-21T00:37:37;21.30;97.50
44117;DHT22;29781;49.480;8.512;2022-08-21T00:40:03;21.00;98.70
44117;DHT22;29781;49.480;8.512;2022-08-21T00:42:29;20.90;99.50
44117;DHT22;29781;49.480;8.512;2022-08-21T00:44:56;21.00;99.70
44117;DHT22;29781;49.480;8.512;2022-08-21T00:47:22;20.80;99.90
44117;DHT22;29781;49.480;8.512;2022-08-21T00:49:48;20.90;99.90
44117;DHT22;29781;49.480;8.512;2022-08-21T00:52:29;21.20;99.90
44117;DHT22;29781;49.480;8.512;2022-08-21T00:54:57;21.30;99.20
44117;DHT22;29781;49.480;8.512;2022-08-21T00:57:47;21.10;99.00
44117;DHT22;29781;49.480;8.512;2022-08-21T01:00:17;20.80;98.80
44117;DHT22;29781;49.480;8.512;2022-08-21T01:02:44;20.80;99.20
44117;DHT22;29781;49.480;8.512;2022-08-21T01:05:11;21.10;99.10
44117;DHT22;29781;49.480;8.512;2022-08-21T01:07:37;21.40;98.40
44117;DHT22;29781;49.480;8.512;2022-08-21T01:10:05;21.40;98.40
44117;DHT22;29781;49.480;8.512;2022-08-21T01:12:32;21.30;98.60
44117;DHT22;29781;49.480;8.512;2022-08-21T01:14:58;21.20;99.00
44117;DHT22;29781;49.480;8.512;2022-08-21T01:17:24;21.20;98.80
44117;DHT22;29781;49.480;8.512;2022-08-21T01:19:51;21.40;98.60
44117;DHT22;29781;49.480;8.512;2022-08-21T01:22:18;21.10;98.90
44117;DHT22;29781;49.480;8.512;2022-08-21T01:24:44;20.80;99.10
44117;DHT22;29781;49.480;8.512;2022-08-21T01:27:10;20.40;99.90
44117;DHT22;29781;49.480;8.512;2022-08-21T01:29:40;20.10;99.90
44117;DHT22;29781;49.480;8.512;2022-08-21T01:32:12;20.10;99.90
44117;DHT22;29781;49.480;8.512;2022-08-21T01:34:41;20.30;99.90
44117;DHT22;29781;49.480;8.512;2022-08-21T01:37:07;20.70;99.70
44117;DHT22;29781;49.480;8.512;2022-08-21T01:39:33;20.90;99.20
44117;DHT22;29781;49.480;8.512;2022-08-21T01:41:59;21.00;98.90
44117;DHT22;29781;49.480;8.512;2022-08-21T01:44:24;20.90;99.20
44117;DHT22;29781;49.480;8.512;2022-08-21T01:46:51;20.40;99.40
44117;DHT22;29781;49.480;8.512;2022-08-21T01:49:17;19.90;99.90
44117;DHT22;29781;49.480;8.512;2022-08-21T01:51:43;19.50;99.90
44117;DHT22;29781;49.480;8.512;2022-08-21T01:54:09;19.10;99.90
44117;DHT22;29781;49.480;8.512;2022-08-21T01:56:40;18.70;99.90
44117;DHT22;29781;49.480;8.512;2022-08-21T01:59:06;18.50;99.90
44117;DHT22;29781;49.480;8.512;2022-08-21T02:01:32;18.40;99.90
44117;DHT22;29781;49.480;8.512;2022-08-21T02:03:58;18.40;99.90
44117;DHT22;29781;49.480;8.512;2022-08-21T02:06:25;18.60;99.90
44117;DHT22;29781;49.480;8.512;2022-08-21T02:08:51;18.90;99.90
44117;DHT22;29781;49.480;8.512;2022-08-21T02:11:17;18.80;99.90
44117;DHT22;29781;49.480;8.512;2022-08-21T02:13:43;18.50;99.90
44117;DHT22;29781;49.480;8.512;2022-08-21T02:16:12;18.30;99.90
44117;DHT22;29781;49.480;8.512;2022-08-21T02:18:37;18.20;99.90
44117;DHT22;29781;49.480;8.512;2022-08-21T02:21:04;18.30;99.90
44117;DHT22;29781;49.480;8.512;2022-08-21T02:23:30;18.50;99.90
44117;DHT22;29781;49.480;8.512;2022-08-21T02:26:01;18.60;99.90
44117;DHT22;29781;49.480;8.512;2022-08-21T02:28:28;18.50;99.90
44117;DHT22;29781;49.480;8.512;2022-08-21T02:30:55;18.50;99.90
44117;DHT22;29781;49.480;8.512;2022-08-21T02:33:21;18.40;99.90
44117;DHT22;29781;49.480;8.512;2022-08-21T02:35:48;18.20;99.90
44117;DHT22;29781;49.480;8.512;2022-08-21T02:38:20;18.20;99.90
44117;DHT22;29781;49.480;8.512;2022-08-21T02:40:47;18.20;99.90
44117;DHT22;29781;49.480;8.512;2022-08-21T02:43:14;18.30;99.90
44117;DHT22;29781;49.480;8.512;2022-08-21T02:45:41;18.20;99.90
44117;DHT22;29781;49.480;8.512;2022-08-21T02:48:09;18.30;99.90
44117;DHT22;29781;49.480;8.512;2022-08-21T02:50:38;18.30;99.90
44117;DHT22;29781;49.480;8.512;2022-08-21T02:53:05;18.30;99.90
44117;DHT22;29781;49.480;8.512;2022-08-21T02:55:32;18.30;99.90
44117;DHT22;29781;49.480;8.512;2022-08-21T02:57:58;18.30;99.90
44117;DHT22;29781;49.480;8.512;2022-08-21T03:00:26;18.10;99.90
44117;DHT22;29781;49.480;8.512;2022-08-21T03:02:53;18.00;99.90
44117;DHT22;29781;49.480;8.512;2022-08-21T03:05:20;18.20;99.90
44117;DHT22;29781;49.480;8.512;2022-08-21T03:07:47;18.50;99.90
44117;DHT22;29781;49.480;8.512;2022-08-21T03:10:13;18.80;99.90
44117;DHT22;29781;49.480;8.512;2022-08-21T03:12:39;18.80;99.90
44117;DHT22;29781;49.480;8.512;2022-08-21T03:15:10;18.70;99.90
44117;DHT22;29781;49.480;8.512;2022-08-21T03:17:36;18.40;99.90
44117;DHT22;29781;49.480;8.512;2022-08-21T03:20:05;18.40;99.90
44117;DHT22;29781;49.480;8.512;2022-08-21T03:22:31;18.20;99.90
44117;DHT22;29781;49.480;8.512;2022-08-21T03:24:57;18.10;99.90
44117;DHT22;29781;49.480;8.512;2022-08-21T03:27:24;18.20;99.90
44117;DHT22;29781;49.480;8.512;2022-08-21T03:29:50;18.20;99.90
44117;DHT22;29781;49.480;8.512;2022-08-21T03:32:15;18.00;99.90
44117;DHT22;29781;49.480;8.512;2022-08-21T03:34:41;17.80;99.90
44117;DHT22;29781;49.480;8.512;2022-08-21T03:37:08;17.60;99.90
44117;DHT22;29781;49.480;8.512;2022-08-21T03:39:34;17.70;99.90
44117;DHT22;29781;49.480;8.512;2022-08-21T03:41:59;17.80;99.90
44117;DHT22;29781;49.480;8.512;2022-08-21T03:44:26;17.70;99.90
44117;DHT22;29781;49.480;8.512;2022-08-21T03:46:56;17.70;99.90
44117;DHT22;29781;49.480;8.512;2022-08-21T03:49:22;17.80;99.90
44117;DHT22;29781;49.480;8.512;2022-08-21T03:51:48;17.60;99.90
44117;DHT22;29781;49.480;8.512;2022-08-21T03:54:14;17.50;99.90
44117;DHT22;29781;49.480;8.512;2022-08-21T03:56:40;17.50;99.90
44117;DHT22;29781;49.480;8.512;2022-08-21T03:59:06;17.60;99.90
44117;DHT22;29781;49.480;8.512;2022-08-21T04:01:32;18.20;99.90
44117;DHT22;29781;49.480;8.512;2022-08-21T04:03:58;18.50;99.90
44117;DHT22;29781;49.480;8.512;2022-08-21T04:06:25;18.90;99.90
44117;DHT22;29781;49.480;8.512;2022-08-21T04:08:52;19.20;99.90
44117;DHT22;29781;49.480;8.512;2022-08-21T04:11:18;19.30;99.90
44117;DHT22;29781;49.480;8.512;2022-08-21T04:13:43;19.20;99.90
44117;DHT22;29781;49.480;8.512;2022-08-21T04:16:09;19.30;99.90
44117;DHT22;29781;49.480;8.512;2022-08-21T04:18:35;19.40;99.90
44117;DHT22;29781;49.480;8.512;2022-08-21T04:21:02;19.20;99.90
44117;DHT22;29781;49.480;8.512;2022-08-21T04:23:28;18.90;99.90
44117;DHT22;29781;49.480;8.512;2022-08-21T04:25:55;18.50;99.90
44117;DHT22;29781;49.480;8.512;2022-08-21T04:28:23;18.10;99.90
44117;DHT22;29781;49.480;8.512;2022-08-21T04:30:50;17.90;99.90
44117;DHT22;29781;49.480;8.512;2022-08-21T04:33:16;17.70;99.90
44117;DHT22;29781;49.480;8.512;2022-08-21T04:35:41;17.70;99.90
44117;DHT22;29781;49.480;8.512;2022-08-21T04:38:08;17.70;99.90
44117;DHT22;29781;49.480;8.512;2022-08-21T04:40:33;17.70;99.90
44117;DHT22;29781;49.480;8.512;2022-08-21T04:43:03;17.60;99.90
44117;DHT22;29781;49.480;8.512;2022-08-21T04:45:35;17.80;99.90
44117;DHT22;29781;49.480;8.512;2022-08-21T04:48:04;18.10;99.90
44117;DHT22;29781;49.480;8.512;2022-08-21T04:50:39;18.30;99.90
44117;DHT22;29781;49.480;8.512;2022-08-21T04:53:11;18.70;99.90
44117;DHT22;29781;49.480;8.512;2022-08-21T04:55:39;19.00;99.90
44117;DHT22;29781;49.480;8.512;2022-08-21T04:58:07;19.20;99.90
44117;DHT22;29781;49.480;8.512;2022-08-21T05:00:34;19.10;99.90
44117;DHT22;29781;49.480;8.512;2022-08-21T05:03:00;19.10;99.90
44117;DHT22;29781;49.480;8.512;2022-08-21T05:05:28;19.20;99.90
44117;DHT22;29781;49.480;8.512;2022-08-21T05:07:55;19.00;99.90
44117;DHT22;29781;49.480;8.512;2022-08-21T05:10:21;19.00;99.90
44117;DHT22;29781;49.480;8.512;2022-08-21T05:12:47;18.90;99.90
44117;DHT22;29781;49.480;8.512;2022-08-21T05:15:13;18.40;99.90
44117;DHT22;29781;49.480;8.512;2022-08-21T05:17:42;18.20;99.90
44117;DHT22;29781;49.480;8.512;2022-08-21T05:20:10;18.30;99.90
44117;DHT22;29781;49.480;8.512;2022-08-21T05:22:36;18.50;99.90
44117;DHT22;29781;49.480;8.512;2022-08-21T05:25:02;18.80;99.90
44117;DHT22;29781;49.480;8.512;2022-08-21T05:27:27;18.80;99.90
44117;DHT22;29781;49.480;8.512;2022-08-21T05:29:55;18.80;99.90
44117;DHT22;29781;49.480;8.512;2022-08-21T05:32:21;18.90;99.90
44117;DHT22;29781;49.480;8.512;2022-08-21T05:34:47;18.80;99.90
44117;DHT22;29781;49.480;8.512;2022-08-21T05:37:12;18.90;99.90
44117;DHT22;29781;49.480;8.512;2022-08-21T05:39:38;19.00;99.90
44117;DHT22;29781;49.480;8.512;2022-08-21T05:42:04;19.30;99.90
44117;DHT22;29781;49.480;8.512;2022-08-21T05:44:29;19.40;99.90
44117;DHT22;29781;49.480;8.512;2022-08-21T05:47:05;19.50;99.90
44117;DHT22;29781;49.480;8.512;2022-08-21T05:49:31;19.60;99.90
44117;DHT22;29781;49.480;8.512;2022-08-21T05:51:56;19.60;99.90
44117;DHT22;29781;49.480;8.512;2022-08-21T05:54:22;19.60;99.90
44117;DHT22;29781;49.480;8.512;2022-08-21T05:56:48;19.40;99.90
44117;DHT22;29781;49.480;8.512;2022-08-21T05:59:14;19.30;99.90
44117;DHT22;29781;49.480;8.512;2022-08-21T06:01:40;19.20;99.90
44117;DHT22;29781;49.480;8.512;2022-08-21T06:04:06;19.30;99.90
44117;DHT22;29781;49.480;8.512;2022-08-21T06:06:33;19.50;99.90
44117;DHT22;29781;49.480;8.512;2022-08-21T06:08:59;19.60;99.90
44117;DHT22;29781;49.480;8.512;2022-08-21T06:11:24;19.60;99.90
44117;DHT22;29781;49.480;8.512;2022-08-21T06:13:50;19.60;99.90
44117;DHT22;29781;49.480;8.512;2022-08-21T06:16:16;19.70;99.90
44117;DHT22;29781;49.480;8.512;2022-08-21T06:18:43;19.80;99.90
44117;DHT22;29781;49.480;8.512;2022-08-21T06:21:09;20.00;99.90
44117;DHT22;29781;49.480;8.512;2022-08-21T06:23:37;20.00;99.90
44117;DHT22;29781;49.480;8.512;2022-08-21T06:26:04;20.10;99.90
44117;DHT22;29781;49.480;8.512;2022-08-21T06:28:31;20.10;99.90
44117;DHT22;29781;49.480;8.512;2022-08-21T06:30:57;20.20;99.90
44117;DHT22;29781;49.480;8.512;2022-08-21T06:33:22;20.20;99.90
44117;DHT22;29781;49.480;8.512;2022-08-21T06:35:49;20.20;99.90
44117;DHT22;29781;49.480;8.512;2022-08-21T06:38:14;20.20;99.90
44117;DHT22;29781;49.480;8.512;2022-08-21T06:40:41;20.10;99.90
44117;DHT22;29781;49.480;8.512;2022-08-21T06:43:16;20.20;99.90
44117;DHT22;29781;49.480;8.512;2022-08-21T06:45:42;19.90;99.90
44117;DHT22;29781;49.480;8.512;2022-08-21T06:48:08;19.60;99.90
44117;DHT22;29781;49.480;8.512;2022-08-21T06:50:35;19.50;99.90
44117;DHT22;29781;49.480;8.512;2022-08-21T06:53:07;19.30;99.90
44117;DHT22;29781;49.480;8.512;2022-08-21T06:55:33;19.40;99.90
44117;DHT22;29781;49.480;8.512;2022-08-21T06:57:59;19.40;99.90
44117;DHT22;29781;49.480;8.512;2022-08-21T07:00:25;19.60;99.90
44117;DHT22;29781;49.480;8.512;2022-08-21T07:02:51;19.60;99.90
44117;DHT22;29781;49.480;8.512;2022-08-21T07:05:17;19.70;99.90
44117;DHT22;29781;49.480;8.512;2022-08-21T07:07:43;19.90;99.90
44117;DHT22;29781;49.480;8.512;2022-08-21T07:10:08;20.20;99.90
44117;DHT22;29781;49.480;8.512;2022-08-21T07:12:34;20.10;99.90
44117;DHT22;29781;49.480;8.512;2022-08-21T07:15:00;19.90;99.90
44117;DHT22;29781;49.480;8.512;2022-08-21T07:17:26;20.00;99.90
44117;DHT22;29781;49.480;8.512;2022-08-21T07:19:52;20.20;99.90
44117;DHT22;29781;49.480;8.512;2022-08-21T07:22:19;20.30;99.90
44117;DHT22;29781;49.480;8.512;2022-08-21T07:24:46;20.60;99.90
44117;DHT22;29781;49.480;8.512;2022-08-21T07:27:12;20.70;99.90
44117;DHT22;29781;49.480;8.512;2022-08-21T07:29:38;20.60;99.90
44117;DHT22;29781;49.480;8.512;2022-08-21T07:32:04;20.70;99.90
44117;DHT22;29781;49.480;8.512;2022-08-21T07:34:30;20.60;99.90
44117;DHT22;29781;49.480;8.512;2022-08-21T07:36:57;20.80;99.90
44117;DHT22;29781;49.480;8.512;2022-08-21T07:39:22;21.00;99.90
44117;DHT22;29781;49.480;8.512;2022-08-21T07:41:48;20.80;99.90
44117;DHT22;29781;49.480;8.512;2022-08-21T07:44:14;20.70;99.90
44117;DHT22;29781;49.480;8.512;2022-08-21T07:46:39;20.70;99.90
44117;DHT22;29781;49.480;8.512;2022-08-21T07:49:05;20.80;99.90
44117;DHT22;29781;49.480;8.512;2022-08-21T07:51:30;21.00;99.90
44117;DHT22;29781;49.480;8.512;2022-08-21T07:53:59;21.30;99.90
44117;DHT22;29781;49.480;8.512;2022-08-21T07:56:25;21.50;99.90
44117;DHT22;29781;49.480;8.512;2022-08-21T07:58:51;21.30;99.80
44117;DHT22;29781;49.480;8.512;2022-08-21T08:01:17;21.40;99.90
44117;DHT22;29781;49.480;8.512;2022-08-21T08:03:43;21.60;99.90
44117;DHT22;29781;49.480;8.512;2022-08-21T08:06:10;21.70;99.60
44117;DHT22;29781;49.480;8.512;2022-08-21T08:08:39;21.90;99.30
44117;DHT22;29781;49.480;8.512;2022-08-21T08:11:06;21.90;98.90
44117;DHT22;29781;49.480;8.512;2022-08-21T08:13:37;21.50;99.60
44117;DHT22;29781;49.480;8.512;2022-08-21T08:16:03;21.40;99.90
44117;DHT22;29781;49.480;8.512;2022-08-21T08:18:28;21.50;99.90
44117;DHT22;29781;49.480;8.512;2022-08-21T08:20:54;21.80;99.40
44117;DHT22;29781;49.480;8.512;2022-08-21T08:23:20;21.60;99.50
44117;DHT22;29781;49.480;8.512;2022-08-21T08:25:46;21.50;99.50
44117;DHT22;29781;49.480;8.512;2022-08-21T08:28:11;21.70;99.30
44117;DHT22;29781;49.480;8.512;2022-08-21T08:30:37;21.90;99.30
44117;DHT22;29781;49.480;8.512;2022-08-21T08:33:03;22.20;98.90
44117;DHT22;29781;49.480;8.512;2022-08-21T08:35:28;22.50;98.20
44117;DHT22;29781;49.480;8.512;2022-08-21T08:37:54;22.70;98.20
44117;DHT22;29781;49.480;8.512;2022-08-21T08:40:42;22.80;97.90
44117;DHT22;29781;49.480;8.512;2022-08-21T08:43:10;22.50;98.30
44117;DHT22;29781;49.480;8.512;2022-08-21T08:45:39;22.80;98.20
44117;DHT22;29781;49.480;8.512;2022-08-21T08:48:09;22.80;98.10
44117;DHT22;29781;49.480;8.512;2022-08-21T08:50:44;23.20;97.70
44117;DHT22;29781;49.480;8.512;2022-08-21T08:53:31;23.40;97.60
44117;DHT22;29781;49.480;8.512;2022-08-21T08:55:58;23.60;97.40
44117;DHT22;29781;49.480;8.512;2022-08-21T08:58:34;23.70;97.20
44117;DHT22;29781;49.480;8.512;2022-08-21T09:01:05;23.70;97.00
44117;DHT22;29781;49.480;8.512;2022-08-21T09:03:34;23.80;97.10
44117;DHT22;29781;49.480;8.512;2022-08-21T09:09:10;23.10;97.90
44117;DHT22;29781;49.480;8.512;2022-08-21T09:11:57;23.00;98.30
44117;DHT22;29781;49.480;8.512;2022-08-21T09:14:43;22.80;98.70
44117;DHT22;29781;49.480;8.512;2022-08-21T09:26:02;23.50;97.60
44117;DHT22;29781;49.480;8.512;2022-08-21T09:28:36;23.70;97.00
44117;DHT22;29781;49.480;8.512;2022-08-21T09:31:34;23.50;96.80
44117;DHT22;29781;49.480;8.512;2022-08-21T09:34:02;23.40;97.40
44117;DHT22;29781;49.480;8.512;2022-08-21T09:39:02;23.40;95.80
44117;DHT22;29781;49.480;8.512;2022-08-21T09:41:30;23.40;96.20
44117;DHT22;29781;49.480;8.512;2022-08-21T09:43:57;23.40;96.00
44117;DHT22;29781;49.480;8.512;2022-08-21T09:46:25;23.40;96.00
44117;DHT22;29781;49.480;8.512;2022-08-21T09:48:54;23.70;95.40
44117;DHT22;29781;49.480;8.512;2022-08-21T09:51:36;23.90;95.50
44117;DHT22;29781;49.480;8.512;2022-08-21T09:56:33;24.50;93.60
44117;DHT22;29781;49.480;8.512;2022-08-21T09:59:27;24.40;93.10
44117;DHT22;29781;49.480;8.512;2022-08-21T10:01:56;24.10;93.60
44117;DHT22;29781;49.480;8.512;2022-08-21T10:04:29;24.20;93.80
44117;DHT22;29781;49.480;8.512;2022-08-21T10:07:14;24.30;93.40
44117;DHT22;29781;49.480;8.512;2022-08-21T10:09:41;24.40;93.00
44117;DHT22;29781;49.480;8.512;2022-08-21T10:12:19;24.40;93.10
44117;DHT22;29781;49.480;8.512;2022-08-21T10:20:03;24.40;92.20
44117;DHT22;29781;49.480;8.512;2022-08-21T10:28:10;24.40;92.00
44117;DHT22;29781;49.480;8.512;2022-08-21T10:31:42;24.40;92.30
44117;DHT22;29781;49.480;8.512;2022-08-21T10:34:13;24.60;91.90
44117;DHT22;29781;49.480;8.512;2022-08-21T10:37:08;24.70;91.50
44117;DHT22;29781;49.480;8.512;2022-08-21T10:45:24;24.90;91.30
44117;DHT22;29781;49.480;8.512;2022-08-21T10:48:07;25.00;91.30
44117;DHT22;29781;49.480;8.512;2022-08-21T10:50:50;25.00;91.00
44117;DHT22;29781;49.480;8.512;2022-08-21T10:56:25;25.10;90.60
44117;DHT22;29781;49.480;8.512;2022-08-21T10:59:20;25.00;91.40
44117;DHT22;29781;49.480;8.512;2022-08-21T11:01:57;24.90;91.00
44117;DHT22;29781;49.480;8.512;2022-08-21T11:04:25;25.20;90.30
44117;DHT22;29781;49.480;8.512;2022-08-21T11:07:00;25.10;90.10
44117;DHT22;29781;49.480;8.512;2022-08-21T11:09:27;24.80;90.50
44117;DHT22;29781;49.480;8.512;2022-08-21T11:14:41;24.90;90.50
44117;DHT22;29781;49.480;8.512;2022-08-21T11:17:13;24.80;90.80
44117;DHT22;29781;49.480;8.512;2022-08-21T11:19:45;25.00;90.70
44117;DHT22;29781;49.480;8.512;2022-08-21T11:22:21;25.30;89.40
44117;DHT22;29781;49.480;8.512;2022-08-21T11:25:26;25.50;88.00
44117;DHT22;29781;49.480;8.512;2022-08-21T11:28:10;26.10;85.10
44117;DHT22;29781;49.480;8.512;2022-08-21T11:30:47;26.60;83.50
44117;DHT22;29781;49.480;8.512;2022-08-21T11:36:27;26.90;82.30
44117;DHT22;29781;49.480;8.512;2022-08-21T11:50:42;25.40;84.70
44117;DHT22;29781;49.480;8.512;2022-08-21T11:53:14;25.30;84.40
44117;DHT22;29781;49.480;8.512;2022-08-21T11:58:20;25.70;85.70
44117;DHT22;29781;49.480;8.512;2022-08-21T12:01:02;26.00;84.20
44117;DHT22;29781;49.480;8.512;2022-08-21T12:03:31;26.10;83.50
44117;DHT22;29781;49.480;8.512;2022-08-21T12:06:04;26.00;84.20
44117;DHT22;29781;49.480;8.512;2022-08-21T12:11:08;26.10;84.20
44117;DHT22;29781;49.480;8.512;2022-08-21T12:13:40;26.30;83.50
44117;DHT22;29781;49.480;8.512;2022-08-21T12:19:06;26.50;82.00
44117;DHT22;29781;49.480;8.512;2022-08-21T12:21:32;26.60;82.30
44117;DHT22;29781;49.480;8.512;2022-08-21T12:26:49;26.80;80.50
44117;DHT22;29781;49.480;8.512;2022-08-21T12:29:31;26.90;80.40
44117;DHT22;29781;49.480;8.512;2022-08-21T12:32:43;26.90;80.20
44117;DHT22;29781;49.480;8.512;2022-08-21T12:35:07;26.80;80.90
44117;DHT22;29781;49.480;8.512;2022-08-21T12:40:04;26.80;81.10
44117;DHT22;29781;49.480;8.512;2022-08-21T12:42:44;26.90;80.40
44117;DHT22;29781;49.480;8.512;2022-08-21T12:45:28;26.80;81.00
44117;DHT22;29781;49.480;8.512;2022-08-21T12:47:59;27.10;79.90
44117;DHT22;29781;49.480;8.512;2022-08-21T12:50:36;27.10;79.40
44117;DHT22;29781;49.480;8.512;2022-08-21T12:53:08;26.90;80.40
44117;DHT22;29781;49.480;8.512;2022-08-21T12:55:35;26.90;80.30
44117;DHT22;29781;49.480;8.512;2022-08-21T12:58:05;26.90;80.90
44117;DHT22;29781;49.480;8.512;2022-08-21T13:00:31;26.90;80.00
44117;DHT22;29781;49.480;8.512;2022-08-21T13:02:57;26.70;81.00
44117;DHT22;29781;49.480;8.512;2022-08-21T13:05:36;26.90;80.00
44117;DHT22;29781;49.480;8.512;2022-08-21T13:08:08;26.60;80.10
44117;DHT22;29781;49.480;8.512;2022-08-21T13:10:36;26.70;81.20
44117;DHT22;29781;49.480;8.512;2022-08-21T13:13:05;26.80;80.20
44117;DHT22;29781;49.480;8.512;2022-08-21T13:15:34;26.90;79.70
44117;DHT22;29781;49.480;8.512;2022-08-21T13:18:02;27.00;78.80
44117;DHT22;29781;49.480;8.512;2022-08-21T13:20:31;27.10;78.20
44117;DHT22;29781;49.480;8.512;2022-08-21T13:22:57;27.10;77.10
44117;DHT22;29781;49.480;8.512;2022-08-21T13:25:28;27.20;77.20
44117;DHT22;29781;49.480;8.512;2022-08-21T13:28:11;27.10;77.20
44117;DHT22;29781;49.480;8.512;2022-08-21T13:30:46;27.20;77.00
44117;DHT22;29781;49.480;8.512;2022-08-21T13:33:15;27.20;77.20
44117;DHT22;29781;49.480;8.512;2022-08-21T13:38:19;27.20;78.20
44117;DHT22;29781;49.480;8.512;2022-08-21T13:40:54;27.10;77.80
44117;DHT22;29781;49.480;8.512;2022-08-21T13:43:26;27.10;76.80
44117;DHT22;29781;49.480;8.512;2022-08-21T13:45:55;27.10;77.00
44117;DHT22;29781;49.480;8.512;2022-08-21T13:48:24;26.90;77.40
44117;DHT22;29781;49.480;8.512;2022-08-21T13:50:50;27.00;77.70
44117;DHT22;29781;49.480;8.512;2022-08-21T13:53:22;27.10;78.60
44117;DHT22;29781;49.480;8.512;2022-08-21T13:55:48;27.10;77.40
44117;DHT22;29781;49.480;8.512;2022-08-21T13:58:28;27.10;77.20
44117;DHT22;29781;49.480;8.512;2022-08-21T14:00:55;27.00;77.20
44117;DHT22;29781;49.480;8.512;2022-08-21T14:05:55;26.70;77.90
44117;DHT22;29781;49.480;8.512;2022-08-21T14:08:33;26.80;77.60
44117;DHT22;29781;49.480;8.512;2022-08-21T14:11:00;26.80;77.90
44117;DHT22;29781;49.480;8.512;2022-08-21T14:16:01;27.10;76.10
44117;DHT22;29781;49.480;8.512;2022-08-21T14:18:28;27.00;76.60
44117;DHT22;29781;49.480;8.512;2022-08-21T14:21:08;27.10;76.20
44117;DHT22;29781;49.480;8.512;2022-08-21T14:23:34;27.20;77.00
44117;DHT22;29781;49.480;8.512;2022-08-21T14:26:02;27.40;76.00
44117;DHT22;29781;49.480;8.512;2022-08-21T14:28:34;27.40;75.00
44117;DHT22;29781;49.480;8.512;2022-08-21T14:31:14;27.40;75.90
44117;DHT22;29781;49.480;8.512;2022-08-21T14:33:40;27.50;75.50
44117;DHT22;29781;49.480;8.512;2022-08-21T14:36:06;27.50;75.10
44117;DHT22;29781;49.480;8.512;2022-08-21T14:38:32;27.50;74.40
44117;DHT22;29781;49.480;8.512;2022-08-21T14:41:07;27.40;74.50
44117;DHT22;29781;49.480;8.512;2022-08-21T14:43:33;27.20;74.90
44117;DHT22;29781;49.480;8.512;2022-08-21T14:46:00;27.20;75.40
44117;DHT22;29781;49.480;8.512;2022-08-21T14:48:26;27.30;75.50
44117;DHT22;29781;49.480;8.512;2022-08-21T14:50:52;27.40;75.60
44117;DHT22;29781;49.480;8.512;2022-08-21T14:53:17;27.50;74.50
44117;DHT22;29781;49.480;8.512;2022-08-21T14:55:43;27.50;74.10
44117;DHT22;29781;49.480;8.512;2022-08-21T14:58:27;27.30;73.80
44117;DHT22;29781;49.480;8.512;2022-08-21T15:00:54;27.30;74.10
44117;DHT22;29781;49.480;8.512;2022-08-21T15:03:21;27.20;73.80
44117;DHT22;29781;49.480;8.512;2022-08-21T15:05:47;27.20;74.10
44117;DHT22;29781;49.480;8.512;2022-08-21T15:08:13;27.40;74.00
44117;DHT22;29781;49.480;8.512;2022-08-21T15:10:39;27.60;73.70
44117;DHT22;29781;49.480;8.512;2022-08-21T15:13:05;27.90;73.10
44117;DHT22;29781;49.480;8.512;2022-08-21T15:15:36;27.90;73.30
44117;DHT22;29781;49.480;8.512;2022-08-21T15:18:03;27.70;73.30
44117;DHT22;29781;49.480;8.512;2022-08-21T15:20:29;27.50;73.80
44117;DHT22;29781;49.480;8.512;2022-08-21T15:22:54;27.50;73.40
44117;DHT22;29781;49.480;8.512;2022-08-21T15:25:20;27.50;73.50
44117;DHT22;29781;49.480;8.512;2022-08-21T15:27:46;27.60;73.30
44117;DHT22;29781;49.480;8.512;2022-08-21T15:30:12;27.80;72.80
44117;DHT22;29781;49.480;8.512;2022-08-21T15:32:37;27.90;72.80
44117;DHT22;29781;49.480;8.512;2022-08-21T15:35:04;27.80;72.90
44117;DHT22;29781;49.480;8.512;2022-08-21T15:37:30;27.80;73.60
44117;DHT22;29781;49.480;8.512;2022-08-21T15:39:56;28.00;72.60
44117;DHT22;29781;49.480;8.512;2022-08-21T15:42:22;28.10;72.40
44117;DHT22;29781;49.480;8.512;2022-08-21T15:44:49;28.10;72.00
44117;DHT22;29781;49.480;8.512;2022-08-21T15:47:19;28.10;72.40
44117;DHT22;29781;49.480;8.512;2022-08-21T15:49:44;27.90;72.30
44117;DHT22;29781;49.480;8.512;2022-08-21T15:52:20;27.70;73.00
44117;DHT22;29781;49.480;8.512;2022-08-21T15:54:46;27.70;73.00
44117;DHT22;29781;49.480;8.512;2022-08-21T15:57:14;27.80;72.10
44117;DHT22;29781;49.480;8.512;2022-08-21T16:00:10;27.80;72.40
44117;DHT22;29781;49.480;8.512;2022-08-21T16:02:39;27.60;72.30
44117;DHT22;29781;49.480;8.512;2022-08-21T16:05:06;27.70;72.50
44117;DHT22;29781;49.480;8.512;2022-08-21T16:07:32;27.60;72.50
44117;DHT22;29781;49.480;8.512;2022-08-21T16:09:58;27.70;74.40
44117;DHT22;29781;49.480;8.512;2022-08-21T16:12:26;27.80;73.20
44117;DHT22;29781;49.480;8.512;2022-08-21T16:14:53;27.90;72.50
44117;DHT22;29781;49.480;8.512;2022-08-21T16:17:23;27.80;71.50
44117;DHT22;29781;49.480;8.512;2022-08-21T16:19:50;27.60;71.90
44117;DHT22;29781;49.480;8.512;2022-08-21T16:22:15;27.70;72.60
44117;DHT22;29781;49.480;8.512;2022-08-21T16:24:41;27.70;72.80
44117;DHT22;29781;49.480;8.512;2022-08-21T16:27:07;27.60;71.90
44117;DHT22;29781;49.480;8.512;2022-08-21T16:29:35;27.60;72.80
44117;DHT22;29781;49.480;8.512;2022-08-21T16:32:02;27.60;72.50
44117;DHT22;29781;49.480;8.512;2022-08-21T16:34:28;27.60;73.30
44117;DHT22;29781;49.480;8.512;2022-08-21T16:36:54;27.60;72.10
44117;DHT22;29781;49.480;8.512;2022-08-21T16:39:20;27.70;73.40
44117;DHT22;29781;49.480;8.512;2022-08-21T16:41:47;27.80;72.70
44117;DHT22;29781;49.480;8.512;2022-08-21T16:44:14;27.90;72.50
44117;DHT22;29781;49.480;8.512;2022-08-21T16:46:41;28.00;72.40
44117;DHT22;29781;49.480;8.512;2022-08-21T16:49:07;28.10;72.30
44117;DHT22;29781;49.480;8.512;2022-08-21T16:51:35;28.00;72.00
44117;DHT22;29781;49.480;8.512;2022-08-21T16:54:01;27.90;71.90
44117;DHT22;29781;49.480;8.512;2022-08-21T16:56:27;27.90;71.50